SCSR weather

Segundo Corral Alto Airport
Segundo Corral, Los Lagos Region, Chile

Public forecast

Using degrees Celsius for public forecast. Weather courtesy of forecast.io.

METAR (pilot weather report)

Report is more than 6 hours old.

Closest report is Brigadier Antonio Parodi Airport, 59.0 nm (109.3 km) SSE. Retrieved 2019/04/11 13:20 UTC (11 days ago):

SAVE 111320Z 27002KT 4000 FG SCT010 BKN070 06/06 Q1020

TAF (pilot weather forecast)

Forecast is more than 12 hours old.

Closest forecast is Brigadier Antonio Parodi Airport, 59.0 nm (109.3 km) SSE. Retrieved 2019/04/15 06:04 UTC (7 days ago):

TAF SAVE 150500Z 1506/1606 27010KT 9999 SCT030 TX12/1518Z TNM01/1510Z BECMG 1518/1520 29010KT